createdAt,value
2018-05-12T00:00:59.549Z,15.47
2018-05-12T00:03:26.956Z,15.00
2018-05-12T00:05:54.428Z,14.67
2018-05-12T00:08:21.805Z,14.40
2018-05-12T00:10:49.216Z,12.60
2018-05-12T00:13:16.631Z,14.50
2018-05-12T00:15:44.045Z,15.03
2018-05-12T00:18:11.472Z,16.50
2018-05-12T00:20:38.880Z,15.83
2018-05-12T00:23:06.304Z,15.80
2018-05-12T00:25:33.709Z,13.87
2018-05-12T00:28:01.133Z,15.77
2018-05-12T00:30:28.544Z,14.43
2018-05-12T00:32:55.952Z,13.50
2018-05-12T00:35:23.396Z,14.40
2018-05-12T00:37:50.811Z,17.97
2018-05-12T00:40:18.245Z,16.30
2018-05-12T00:42:45.697Z,16.70
2018-05-12T00:45:13.127Z,15.63
2018-05-12T00:47:40.556Z,16.67
2018-05-12T00:50:07.976Z,15.70
2018-05-12T00:52:35.401Z,13.30
2018-05-12T00:55:02.824Z,14.40
2018-05-12T00:57:30.259Z,15.47
2018-05-12T00:59:57.671Z,17.30
2018-05-12T01:02:25.101Z,15.43
2018-05-12T01:04:52.516Z,15.83
2018-05-12T01:07:19.926Z,14.67
2018-05-12T01:09:47.356Z,12.17
2018-05-12T01:12:14.757Z,15.70
2018-05-12T01:14:42.167Z,16.80
2018-05-12T01:17:09.604Z,18.03
2018-05-12T01:19:37.012Z,16.23
2018-05-12T01:22:04.441Z,19.17
2018-05-12T01:24:31.852Z,18.70
2018-05-12T01:26:59.257Z,16.93
2018-05-12T01:29:26.685Z,15.07
2018-05-12T01:31:54.100Z,14.37
2018-05-12T01:34:21.835Z,15.53
2018-05-12T01:36:49.248Z,16.47
2018-05-12T01:39:16.663Z,14.23
2018-05-12T01:41:44.093Z,18.87
2018-05-12T01:44:11.510Z,20.63
2018-05-12T01:46:38.956Z,17.97
2018-05-12T01:49:06.375Z,18.17
2018-05-12T01:51:33.818Z,17.73
2018-05-12T01:54:01.246Z,17.40
2018-05-12T01:56:28.662Z,17.53
2018-05-12T01:58:56.072Z,17.33
2018-05-12T02:01:23.518Z,14.67
2018-05-12T02:03:50.924Z,14.53
2018-05-12T02:06:18.744Z,16.30
2018-05-12T02:08:46.162Z,18.90
2018-05-12T02:11:13.577Z,18.17
2018-05-12T02:13:41.008Z,19.93
2018-05-12T02:16:08.685Z,19.50
2018-05-12T02:18:36.111Z,17.87
2018-05-12T02:21:03.532Z,16.77
2018-05-12T02:23:30.965Z,17.77
2018-05-12T02:25:58.628Z,18.53
2018-05-12T02:28:26.036Z,21.00
2018-05-12T02:30:53.446Z,18.17
2018-05-12T02:33:20.876Z,17.70
2018-05-12T02:35:48.310Z,16.93
2018-05-12T02:38:15.724Z,16.07
2018-05-12T02:40:43.153Z,16.00
2018-05-12T02:43:10.582Z,15.43
2018-05-12T02:45:37.984Z,16.73
2018-05-12T02:48:05.412Z,16.77
2018-05-12T02:50:32.840Z,15.53
2018-05-12T02:53:00.239Z,16.17
2018-05-12T02:55:27.671Z,18.17
2018-05-12T02:57:55.075Z,21.30
2018-05-12T03:00:22.505Z,20.47
2018-05-12T03:02:49.940Z,17.93
2018-05-12T03:05:17.353Z,17.47
2018-05-12T03:07:44.784Z,15.83
2018-05-12T03:10:12.207Z,15.67
2018-05-12T03:12:39.635Z,15.47
2018-05-12T03:15:07.056Z,15.67
2018-05-12T03:17:34.493Z,15.67
2018-05-12T03:20:01.920Z,16.30
2018-05-12T03:22:29.336Z,15.97
2018-05-12T03:24:56.771Z,18.67
2018-05-12T03:27:24.191Z,22.40
2018-05-12T03:29:51.604Z,17.23
2018-05-12T03:32:19.271Z,16.90
2018-05-12T03:34:46.693Z,17.30
2018-05-12T03:37:14.120Z,17.93
2018-05-12T03:39:41.721Z,15.60
2018-05-12T03:42:09.144Z,18.80
2018-05-12T03:44:36.583Z,16.23
2018-05-12T03:47:04.008Z,16.10
2018-05-12T03:49:31.427Z,16.80
2018-05-12T03:51:58.864Z,16.90
2018-05-12T03:54:26.281Z,15.83
2018-05-12T03:56:53.976Z,17.03
2018-05-12T03:59:21.380Z,16.40
2018-05-12T04:01:48.778Z,15.00
2018-05-12T04:04:27.945Z,16.13
2018-05-12T04:07:07.090Z,15.80
2018-05-12T04:09:47.120Z,15.70
2018-05-12T04:12:26.183Z,15.93
2018-05-12T04:14:53.604Z,14.67
2018-05-12T04:17:21.011Z,13.83
2018-05-12T04:19:48.436Z,16.73
2018-05-12T04:22:15.844Z,15.43
2018-05-12T04:24:43.252Z,17.90
2018-05-12T04:27:10.719Z,18.30
2018-05-12T04:29:38.124Z,18.20
2018-05-12T04:32:05.549Z,18.93
2018-05-12T04:34:32.959Z,20.43
2018-05-12T04:37:00.363Z,16.37
2018-05-12T04:39:27.791Z,16.70
2018-05-12T04:41:55.197Z,15.53
2018-05-12T04:44:22.902Z,15.17
2018-05-12T04:46:50.303Z,14.40
2018-05-12T04:49:17.712Z,13.93
2018-05-12T04:51:45.143Z,14.07
2018-05-12T04:54:12.568Z,14.33
2018-05-12T04:56:39.979Z,14.77
2018-05-12T04:59:07.822Z,14.63
2018-05-12T05:01:35.236Z,14.40
2018-05-12T05:04:02.651Z,13.47
2018-05-12T05:06:30.076Z,16.47
2018-05-12T05:08:57.484Z,13.97
2018-05-12T05:11:24.891Z,13.57
2018-05-12T05:13:52.311Z,14.27
2018-05-12T05:16:19.732Z,17.80
2018-05-12T05:18:47.161Z,13.80
2018-05-12T05:21:14.662Z,13.93
2018-05-12T05:23:42.018Z,14.40
2018-05-12T05:26:09.439Z,14.10
2018-05-12T05:28:36.851Z,15.83
2018-05-12T05:31:04.596Z,14.50
2018-05-12T05:33:32.009Z,14.47
2018-05-12T05:35:59.422Z,14.23
2018-05-12T05:38:26.841Z,14.20
2018-05-12T05:40:54.253Z,14.43
2018-05-12T05:43:21.691Z,15.53
2018-05-12T05:45:49.092Z,14.03
2018-05-12T05:48:16.520Z,15.07
2018-05-12T05:50:43.978Z,15.03
2018-05-12T05:53:11.388Z,13.77
2018-05-12T05:55:39.119Z,14.97
2018-05-12T05:58:06.527Z,12.73
2018-05-12T06:00:33.940Z,16.40
2018-05-12T06:03:01.366Z,13.07
2018-05-12T06:05:28.775Z,16.33
2018-05-12T06:07:56.200Z,13.83
2018-05-12T06:10:23.611Z,15.43
2018-05-12T06:12:51.021Z,14.03
2018-05-12T06:15:18.443Z,14.43
2018-05-12T06:17:45.867Z,14.33
2018-05-12T06:20:13.292Z,13.33
2018-05-12T06:22:40.699Z,10.93
2018-05-12T06:25:08.396Z,10.88
2018-05-12T06:27:35.799Z,12.43
2018-05-12T06:30:03.210Z,11.15
2018-05-12T06:32:30.957Z,10.38
2018-05-12T06:34:58.364Z,11.10
2018-05-12T06:37:25.777Z,11.12
2018-05-12T06:39:53.572Z,10.60
2018-05-12T06:42:20.976Z,9.68
2018-05-12T06:44:48.383Z,10.60
2018-05-12T06:47:15.802Z,10.55
2018-05-12T06:49:43.205Z,10.00
2018-05-12T06:52:10.708Z,10.95
2018-05-12T06:54:38.112Z,12.18
2018-05-12T06:57:05.645Z,11.35
2018-05-12T06:59:33.329Z,10.73
2018-05-12T07:02:00.733Z,10.48
2018-05-12T07:04:28.148Z,10.80
2018-05-12T07:06:55.820Z,11.15
2018-05-12T07:09:23.231Z,10.70
2018-05-12T07:11:50.634Z,9.98
2018-05-12T07:14:18.044Z,10.43
2018-05-12T07:16:45.449Z,9.68
2018-05-12T07:19:12.863Z,9.25
2018-05-12T07:21:40.314Z,12.23
2018-05-12T07:24:08.036Z,10.75
2018-05-12T07:26:35.456Z,10.40
2018-05-12T07:29:02.866Z,10.02
2018-05-12T07:31:30.298Z,10.48
2018-05-12T07:33:57.706Z,10.82
2018-05-12T07:36:25.133Z,10.10
2018-05-12T07:38:52.609Z,10.23
2018-05-12T07:41:19.977Z,9.68
2018-05-12T07:43:47.395Z,11.77
2018-05-12T07:46:14.832Z,10.45
2018-05-12T07:48:42.240Z,10.82
2018-05-12T07:51:09.653Z,11.23
2018-05-12T07:53:37.136Z,10.90
2018-05-12T07:56:04.541Z,11.90
2018-05-12T07:58:31.951Z,9.30
2018-05-12T08:00:59.374Z,11.25
2018-05-12T08:03:26.797Z,11.57
2018-05-12T08:05:54.200Z,9.82
2018-05-12T08:08:21.607Z,10.25
2018-05-12T08:10:49.012Z,10.05
2018-05-12T08:13:16.592Z,10.05
2018-05-12T08:15:44.000Z,9.95
2018-05-12T08:18:11.408Z,11.10
2018-05-12T08:20:39.130Z,11.27
2018-05-12T08:23:06.537Z,11.40
2018-05-12T08:25:33.936Z,9.90
2018-05-12T08:28:01.386Z,11.20
2018-05-12T08:30:28.800Z,13.25
2018-05-12T08:32:56.239Z,12.10
2018-05-12T08:35:23.668Z,12.65
2018-05-12T08:37:51.079Z,12.45
2018-05-12T08:40:18.565Z,10.45
2018-05-12T08:42:45.911Z,10.18
2018-05-12T08:45:13.485Z,13.50
2018-05-12T08:47:40.905Z,12.15
2018-05-12T08:50:08.342Z,14.15
2018-05-12T08:52:35.755Z,14.60
2018-05-12T08:55:03.184Z,15.02
2018-05-12T08:57:30.648Z,15.73
2018-05-12T08:59:58.057Z,14.98
2018-05-12T09:02:25.637Z,14.45
2018-05-12T09:04:53.559Z,16.52
2018-05-12T09:07:21.180Z,13.13
2018-05-12T09:09:49.503Z,19.05
2018-05-12T09:12:17.408Z,15.00
2018-05-12T09:14:46.182Z,13.50
2018-05-12T09:17:15.369Z,17.12
2018-05-12T09:19:43.129Z,16.27
2018-05-12T09:22:11.496Z,16.62
2018-05-12T09:24:38.936Z,15.48
2018-05-12T09:27:06.368Z,16.20
2018-05-12T09:29:34.373Z,14.75
2018-05-12T09:32:01.782Z,16.77
2018-05-12T09:34:30.675Z,15.80
2018-05-12T09:36:58.224Z,15.20
2018-05-12T09:39:26.033Z,14.87
2018-05-12T09:41:53.619Z,17.52
2018-05-12T09:44:21.849Z,15.32
2018-05-12T09:46:49.703Z,13.68
2018-05-12T09:49:17.124Z,15.95
2018-05-12T09:51:44.616Z,14.73
2018-05-12T09:54:12.204Z,14.38
2018-05-12T09:56:39.910Z,12.75
2018-05-12T09:59:07.730Z,14.90
2018-05-12T10:01:35.202Z,13.57
2018-05-12T10:04:03.057Z,13.18
2018-05-12T10:06:30.619Z,13.25
2018-05-12T10:08:58.282Z,16.12
2018-05-12T10:11:26.464Z,14.95
2018-05-12T10:13:53.932Z,15.18
2018-05-12T10:16:21.651Z,14.98
2018-05-12T10:18:49.137Z,16.17
2018-05-12T10:21:16.555Z,17.10
2018-05-12T10:23:44.232Z,15.30
2018-05-12T10:26:12.010Z,15.80
2018-05-12T10:28:39.398Z,16.40
2018-05-12T10:31:06.900Z,18.87
2018-05-12T10:36:07.569Z,19.23
2018-05-12T10:38:35.074Z,20.73
2018-05-12T10:41:02.556Z,21.30
2018-05-12T10:43:29.998Z,21.08
2018-05-12T10:45:57.399Z,21.62
2018-05-12T10:48:24.840Z,20.00
2018-05-12T10:50:52.312Z,20.25
2018-05-12T10:53:19.738Z,18.60
2018-05-12T10:55:47.164Z,20.30
2018-05-12T10:58:14.582Z,18.83
2018-05-12T11:00:42.006Z,16.73
2018-05-12T11:03:09.415Z,19.55
2018-05-12T11:05:36.987Z,19.58
2018-05-12T11:08:04.540Z,21.63
2018-05-12T11:10:31.968Z,21.87
2018-05-12T11:12:59.376Z,21.73
2018-05-12T11:15:26.796Z,19.48
2018-05-12T11:17:54.477Z,19.55
2018-05-12T11:20:22.011Z,20.67
2018-05-12T11:22:49.308Z,20.08
2018-05-12T11:25:16.757Z,19.98
2018-05-12T11:27:44.192Z,19.83
2018-05-12T11:30:11.719Z,19.37
2018-05-12T11:32:39.186Z,18.58
2018-05-12T11:35:06.769Z,19.48
2018-05-12T11:37:34.451Z,19.65
2018-05-12T11:40:02.089Z,18.62
2018-05-12T11:42:29.673Z,20.27
2018-05-12T11:44:57.097Z,16.83
2018-05-12T11:47:24.794Z,19.67
2018-05-12T11:49:52.300Z,16.85
2018-05-12T11:52:20.352Z,18.77
2018-05-12T11:54:47.952Z,19.00
2018-05-12T11:57:15.620Z,18.20
2018-05-12T11:59:43.097Z,16.65
2018-05-12T12:02:10.525Z,18.08
2018-05-12T12:04:37.936Z,18.42
2018-05-12T12:07:05.363Z,19.40
2018-05-12T12:09:32.779Z,18.50
2018-05-12T12:12:00.187Z,19.25
2018-05-12T12:14:27.617Z,16.85
2018-05-12T12:16:55.020Z,17.15
2018-05-12T12:19:23.657Z,17.10
2018-05-12T12:21:51.378Z,17.25
2018-05-12T12:24:19.226Z,15.40
2018-05-12T12:26:46.843Z,14.02
2018-05-12T12:29:14.272Z,16.35
2018-05-12T12:31:41.700Z,15.75
2018-05-12T12:34:10.541Z,13.85
2018-05-12T12:36:37.966Z,15.18
2018-05-12T12:39:05.477Z,15.75
2018-05-12T12:41:32.899Z,15.88
2018-05-12T12:44:01.044Z,17.17
2018-05-12T12:46:28.468Z,16.83
2018-05-12T12:48:55.895Z,15.60
2018-05-12T12:51:23.689Z,13.43
2018-05-12T12:53:51.113Z,15.52
2018-05-12T12:56:18.520Z,16.25
2018-05-12T12:58:45.948Z,14.95
2018-05-12T13:01:13.840Z,14.55
2018-05-12T13:03:41.266Z,14.73
2018-05-12T13:06:08.700Z,14.40
2018-05-12T13:08:37.340Z,14.65
2018-05-12T13:11:04.763Z,14.45
2018-05-12T13:13:32.171Z,14.87
2018-05-12T13:15:59.692Z,14.30
2018-05-12T13:18:29.060Z,16.62
2018-05-12T13:20:56.472Z,14.82
2018-05-12T13:23:24.661Z,13.40
2018-05-12T13:25:52.069Z,15.48
2018-05-12T13:28:19.495Z,13.45
2018-05-12T13:30:46.905Z,12.40
2018-05-12T13:33:14.317Z,13.93
2018-05-12T13:35:41.754Z,13.57
2018-05-12T13:38:09.172Z,13.40
2018-05-12T13:40:36.596Z,10.88
2018-05-12T13:43:04.016Z,19.27
2018-05-12T13:45:31.788Z,12.75
2018-05-12T13:47:59.201Z,13.05
2018-05-12T13:50:26.616Z,13.35
2018-05-12T13:52:54.292Z,12.60
2018-05-12T13:55:21.703Z,12.25
2018-05-12T13:57:49.571Z,12.75
2018-05-12T14:00:16.996Z,11.00
2018-05-12T14:02:44.409Z,11.93
2018-05-12T14:05:11.834Z,11.32
2018-05-12T14:07:39.254Z,13.10
2018-05-12T14:10:06.656Z,11.45
2018-05-12T14:12:34.352Z,12.40
2018-05-12T14:15:01.757Z,11.50
2018-05-12T14:17:29.168Z,11.15
2018-05-12T14:19:56.596Z,11.88
2018-05-12T14:22:24.026Z,12.43
2018-05-12T14:24:51.805Z,12.48
2018-05-12T14:27:19.228Z,12.00
2018-05-12T14:29:47.761Z,12.93
2018-05-12T14:32:15.217Z,11.45
2018-05-12T14:34:42.639Z,11.15
2018-05-12T14:37:10.362Z,12.18
2018-05-12T14:39:37.789Z,10.82
2018-05-12T14:42:05.196Z,12.25
2018-05-12T14:44:32.627Z,10.23
2018-05-12T14:47:00.036Z,12.52
2018-05-12T14:49:27.472Z,11.52
2018-05-12T14:51:54.879Z,12.20
2018-05-12T14:54:22.309Z,11.43
2018-05-12T14:56:49.728Z,10.13
2018-05-12T14:59:17.166Z,12.52
2018-05-12T15:01:44.600Z,11.35
2018-05-12T15:04:12.008Z,11.98
2018-05-12T15:06:39.441Z,12.60
2018-05-12T15:09:06.857Z,13.05
2018-05-12T15:11:34.288Z,14.65
2018-05-12T15:14:01.708Z,13.05
2018-05-12T15:16:29.148Z,14.32
2018-05-12T15:18:56.584Z,14.40
2018-05-12T15:21:24.064Z,14.75
2018-05-12T15:23:51.804Z,13.05
2018-05-12T15:26:19.226Z,14.82
2018-05-12T15:28:46.641Z,13.62
2018-05-12T15:31:14.400Z,13.82
2018-05-12T15:33:41.812Z,15.20
2018-05-12T15:36:09.259Z,14.87
2018-05-12T15:38:36.682Z,14.25
2018-05-12T15:41:04.114Z,15.00
2018-05-12T15:43:31.535Z,15.90
2018-05-12T15:45:58.973Z,16.25
2018-05-12T15:48:26.390Z,13.25
2018-05-12T15:50:53.808Z,15.07
2018-05-12T15:53:21.232Z,15.48
2018-05-12T15:55:48.657Z,14.10
2018-05-12T15:58:16.083Z,19.85
2018-05-12T16:00:43.508Z,14.95
2018-05-12T16:03:11.212Z,14.32
2018-05-12T16:05:38.603Z,16.15
2018-05-12T16:08:06.028Z,16.10
2018-05-12T16:10:33.454Z,15.70
2018-05-12T16:13:00.879Z,15.93
2018-05-12T16:15:28.352Z,14.52
2018-05-12T16:17:55.755Z,15.70
2018-05-12T16:20:23.207Z,17.10
2018-05-12T16:22:50.620Z,15.93
2018-05-12T16:25:18.048Z,17.48
2018-05-12T16:27:45.528Z,17.25
2018-05-12T16:30:13.029Z,17.83
2018-05-12T16:32:40.588Z,16.83
2018-05-12T16:35:08.008Z,16.10
2018-05-12T16:37:35.434Z,17.12
2018-05-12T16:40:02.924Z,17.75
2018-05-12T16:42:31.256Z,17.75
2018-05-12T16:44:58.684Z,19.87
2018-05-12T16:47:26.105Z,17.85
2018-05-12T16:49:53.515Z,16.90
2018-05-12T16:52:20.961Z,17.60
2018-05-12T16:54:48.377Z,17.95
2018-05-12T16:57:15.792Z,17.83
2018-05-12T16:59:43.220Z,18.90
2018-05-12T17:02:10.640Z,18.77
2018-05-12T17:04:38.089Z,20.37
2018-05-12T17:07:05.492Z,17.90
2018-05-12T17:09:32.912Z,19.40
2018-05-12T17:12:00.320Z,19.00
2018-05-12T17:14:27.983Z,17.62
2018-05-12T17:16:55.404Z,18.33
2018-05-12T17:19:22.846Z,18.80
2018-05-12T17:21:50.276Z,21.70
2018-05-12T17:24:17.688Z,18.77
2018-05-12T17:26:45.180Z,17.95
2018-05-12T17:29:12.591Z,19.55
2018-05-12T17:31:39.999Z,19.45
2018-05-12T17:34:07.427Z,17.92
2018-05-12T17:36:34.853Z,20.98
2018-05-12T17:39:02.274Z,22.60
2018-05-12T17:41:29.675Z,24.07
2018-05-12T17:43:57.104Z,22.90
2018-05-12T17:46:24.511Z,23.52
2018-05-12T17:48:51.924Z,24.33
2018-05-12T17:51:19.351Z,25.17
2018-05-12T17:53:46.814Z,24.08
2018-05-12T17:56:14.223Z,23.50
2018-05-12T17:58:41.644Z,25.10
2018-05-12T18:01:09.080Z,25.77
2018-05-12T18:03:37.065Z,27.27
2018-05-12T18:06:04.485Z,26.43
2018-05-12T18:08:31.904Z,28.17
2018-05-12T18:10:59.327Z,28.27
2018-05-12T18:13:26.756Z,27.57
2018-05-12T18:15:54.165Z,28.40
2018-05-12T18:18:21.586Z,29.03
2018-05-12T18:20:49.035Z,29.43
2018-05-12T18:23:16.515Z,30.47
2018-05-12T18:25:43.879Z,29.17
2018-05-12T18:28:11.300Z,33.17
2018-05-12T18:30:38.946Z,32.27
2018-05-12T18:33:06.351Z,32.27
2018-05-12T18:35:33.765Z,30.50
2018-05-12T18:38:01.208Z,32.77
2018-05-12T18:40:28.607Z,30.73
2018-05-12T18:42:56.040Z,30.10
2018-05-12T18:45:23.759Z,29.03
2018-05-12T18:47:51.168Z,28.73
2018-05-12T18:50:18.616Z,31.80
2018-05-12T18:52:46.052Z,31.23
2018-05-12T18:55:13.471Z,27.80
2018-05-12T18:57:40.884Z,32.03
2018-05-12T19:00:08.648Z,32.27
2018-05-12T19:02:36.063Z,28.80
2018-05-12T19:05:03.468Z,32.63
2018-05-12T19:07:30.894Z,34.60
2018-05-12T19:09:58.305Z,31.73
2018-05-12T19:12:25.903Z,33.80
2018-05-12T19:14:53.321Z,37.37
2018-05-12T19:17:20.728Z,35.33
2018-05-12T19:19:48.153Z,33.77
2018-05-12T19:22:15.563Z,33.57
2018-05-12T19:24:42.988Z,32.40
2018-05-12T19:27:10.401Z,32.93
2018-05-12T19:29:37.819Z,31.87
2018-05-12T19:32:05.256Z,34.43
2018-05-12T19:34:32.673Z,32.70
2018-05-12T19:37:00.091Z,33.27
2018-05-12T19:39:27.539Z,34.27
2018-05-12T19:41:55.212Z,33.43
2018-05-12T19:44:22.640Z,35.33
2018-05-12T19:46:50.063Z,34.10
2018-05-12T19:49:17.540Z,36.37
2018-05-12T19:51:44.971Z,37.70
2018-05-12T19:54:12.392Z,37.37
2018-05-12T19:56:40.152Z,35.17
2018-05-12T19:59:07.623Z,34.80
2018-05-12T20:01:35.037Z,41.43
2018-05-12T20:04:02.839Z,35.57
2018-05-12T20:06:30.268Z,38.93
2018-05-12T20:08:57.680Z,35.77
2018-05-12T20:11:25.170Z,39.00
2018-05-12T20:13:52.586Z,38.10
2018-05-12T20:16:19.993Z,35.13
2018-05-12T20:18:47.412Z,34.70
2018-05-12T20:21:14.823Z,35.17
2018-05-12T20:23:42.544Z,38.30
2018-05-12T20:26:09.955Z,36.27
2018-05-12T20:28:37.363Z,35.50
2018-05-12T20:31:04.859Z,37.60
2018-05-12T20:33:32.316Z,35.33
2018-05-12T20:35:59.743Z,38.93
2018-05-12T20:38:27.172Z,36.63
2018-05-12T20:40:54.632Z,39.30
2018-05-12T20:43:22.071Z,39.90
2018-05-12T20:45:49.552Z,33.70
2018-05-12T20:48:17.321Z,32.67
2018-05-12T20:50:44.758Z,34.50
2018-05-12T20:53:12.164Z,36.73
2018-05-12T20:55:39.931Z,39.27
2018-05-12T20:58:07.544Z,38.40
2018-05-12T21:00:34.948Z,37.53
2018-05-12T21:03:02.436Z,38.80
2018-05-12T21:05:29.837Z,35.07
2018-05-12T21:07:57.536Z,34.50
2018-05-12T21:10:24.945Z,37.57
2018-05-12T21:12:52.357Z,37.00
2018-05-12T21:15:20.107Z,36.70
2018-05-12T21:17:47.561Z,36.93
2018-05-12T21:20:14.964Z,34.00
2018-05-12T21:22:42.720Z,34.93
2018-05-12T21:25:10.131Z,37.37
2018-05-12T21:27:37.548Z,33.57
2018-05-12T21:30:04.965Z,32.73
2018-05-12T21:32:32.404Z,32.87
2018-05-12T21:34:59.831Z,32.00
2018-05-12T21:37:27.259Z,30.90
2018-05-12T21:39:54.671Z,30.83
2018-05-12T21:42:22.386Z,32.03
2018-05-12T21:44:49.792Z,34.30
2018-05-12T21:47:17.218Z,33.93
2018-05-12T21:49:44.653Z,33.53
2018-05-12T21:52:12.096Z,34.77
2018-05-12T21:54:39.515Z,33.63
2018-05-12T21:57:06.956Z,29.40
2018-05-12T21:59:34.382Z,34.50
2018-05-12T22:02:01.825Z,33.37
2018-05-12T22:04:29.247Z,35.47
2018-05-12T22:06:56.671Z,37.20
2018-05-12T22:09:24.111Z,36.13
2018-05-12T22:11:51.528Z,33.43
2018-05-12T22:14:19.285Z,111.20
2018-05-12T22:16:46.706Z,92.47
2018-05-12T22:19:14.137Z,42.70
2018-05-12T22:21:41.563Z,40.20
2018-05-12T22:24:08.989Z,40.80
2018-05-12T22:26:36.424Z,39.13
2018-05-12T22:29:03.839Z,38.33
2018-05-12T22:31:31.263Z,47.30
2018-05-12T22:33:58.699Z,47.33
2018-05-12T22:36:26.516Z,44.43
2018-05-12T22:38:53.945Z,46.37
2018-05-12T22:41:21.365Z,51.13
2018-05-12T22:43:48.829Z,45.90
2018-05-12T22:46:16.636Z,47.67
2018-05-12T22:48:44.070Z,46.60
2018-05-12T22:51:11.488Z,59.17
2018-05-12T22:53:39.224Z,61.10
2018-05-12T22:56:06.713Z,54.00
2018-05-12T22:58:34.148Z,49.43
2018-05-12T23:01:01.581Z,51.90
2018-05-12T23:03:28.997Z,53.60
2018-05-12T23:05:56.440Z,49.67
2018-05-12T23:08:23.860Z,47.40
2018-05-12T23:10:51.279Z,43.70
2018-05-12T23:13:18.699Z,49.10
2018-05-12T23:15:46.124Z,51.37
2018-05-12T23:18:13.531Z,54.67
2018-05-12T23:20:40.957Z,52.77
2018-05-12T23:23:08.480Z,45.50
2018-05-12T23:25:35.894Z,48.73
2018-05-12T23:28:03.297Z,47.73
2018-05-12T23:30:30.893Z,52.63
2018-05-12T23:32:58.296Z,52.27
2018-05-12T23:35:25.727Z,53.77
2018-05-12T23:37:53.149Z,47.93
2018-05-12T23:40:20.557Z,48.60
2018-05-12T23:42:47.993Z,51.93
2018-05-12T23:45:15.418Z,54.33
2018-05-12T23:47:43.161Z,51.73
2018-05-12T23:50:10.574Z,53.53
2018-05-12T23:52:38.000Z,54.43
2018-05-12T23:55:05.433Z,53.97
2018-05-12T23:57:32.857Z,55.40
